sensor_id;sensor_type;location;lat;lon;timestamp;pressure;altitude;pressure_sealevel;temperature
27715;BMP280;16051;53.024;8.630;2022-12-18T00:03:29;102905.16;;;-7.05
27715;BMP280;16051;53.024;8.630;2022-12-18T00:07:33;102900.19;;;-6.98
27715;BMP280;16051;53.024;8.630;2022-12-18T00:11:35;102893.94;;;-7.07
27715;BMP280;16051;53.024;8.630;2022-12-18T00:15:45;102894.22;;;-7.08
27715;BMP280;16051;53.024;8.630;2022-12-18T00:19:47;102884.97;;;-7.16
27715;BMP280;16051;53.024;8.630;2022-12-18T00:23:51;102873.16;;;-7.28
27715;BMP280;16051;53.024;8.630;2022-12-18T00:27:53;102888.06;;;-7.22
27715;BMP280;16051;53.024;8.630;2022-12-18T00:31:55;102883.28;;;-7.25
27715;BMP280;16051;53.024;8.630;2022-12-18T00:36:16;102891.63;;;-7.27
27715;BMP280;16051;53.024;8.630;2022-12-18T00:40:20;102887.38;;;-7.28
27715;BMP280;16051;53.024;8.630;2022-12-18T00:44:22;102896.53;;;-7.29
27715;BMP280;16051;53.024;8.630;2022-12-18T00:48:24;102885.09;;;-7.34
27715;BMP280;16051;53.024;8.630;2022-12-18T00:52:26;102880.28;;;-7.37
27715;BMP280;16051;53.024;8.630;2022-12-18T00:56:39;102877.59;;;-7.37
27715;BMP280;16051;53.024;8.630;2022-12-18T01:00:42;102879.41;;;-7.47
27715;BMP280;16051;53.024;8.630;2022-12-18T01:04:44;102887.75;;;-7.48
27715;BMP280;16051;53.024;8.630;2022-12-18T01:08:46;102893.03;;;-7.57
27715;BMP280;16051;53.024;8.630;2022-12-18T01:12:58;102902.97;;;-7.43
27715;BMP280;16051;53.024;8.630;2022-12-18T01:17:00;102904.38;;;-7.46
27715;BMP280;16051;53.024;8.630;2022-12-18T01:21:16;102910.84;;;-7.47
27715;BMP280;16051;53.024;8.630;2022-12-18T01:25:18;102908.00;;;-7.56
27715;BMP280;16051;53.024;8.630;2022-12-18T01:29:22;102925.44;;;-7.53
27715;BMP280;16051;53.024;8.630;2022-12-18T01:33:24;102920.56;;;-7.51
27715;BMP280;16051;53.024;8.630;2022-12-18T01:37:26;102906.94;;;-7.55
27715;BMP280;16051;53.024;8.630;2022-12-18T01:41:49;102917.25;;;-7.62
27715;BMP280;16051;53.024;8.630;2022-12-18T01:46:04;102920.25;;;-7.63
27715;BMP280;16051;53.024;8.630;2022-12-18T01:50:10;102920.34;;;-7.68
27715;BMP280;16051;53.024;8.630;2022-12-18T01:54:13;102921.72;;;-7.71
27715;BMP280;16051;53.024;8.630;2022-12-18T01:58:51;102910.00;;;-7.75
27715;BMP280;16051;53.024;8.630;2022-12-18T02:02:57;102919.53;;;-7.69
27715;BMP280;16051;53.024;8.630;2022-12-18T02:07:08;102924.63;;;-7.67
27715;BMP280;16051;53.024;8.630;2022-12-18T02:11:41;102934.22;;;-7.80
27715;BMP280;16051;53.024;8.630;2022-12-18T02:15:56;102923.28;;;-7.83
27715;BMP280;16051;53.024;8.630;2022-12-18T02:20:12;102913.63;;;-7.84
27715;BMP280;16051;53.024;8.630;2022-12-18T02:24:29;102917.19;;;-7.89
27715;BMP280;16051;53.024;8.630;2022-12-18T02:28:42;102923.44;;;-7.93
27715;BMP280;16051;53.024;8.630;2022-12-18T02:32:51;102915.97;;;-7.97
27715;BMP280;16051;53.024;8.630;2022-12-18T02:36:57;102911.75;;;-8.03
27715;BMP280;16051;53.024;8.630;2022-12-18T02:41:00;102909.56;;;-8.14
27715;BMP280;16051;53.024;8.630;2022-12-18T02:45:06;102906.66;;;-8.18
27715;BMP280;16051;53.024;8.630;2022-12-18T02:49:23;102911.44;;;-8.15
27715;BMP280;16051;53.024;8.630;2022-12-18T02:53:35;102910.06;;;-8.12
27715;BMP280;16051;53.024;8.630;2022-12-18T02:57:51;102919.69;;;-8.11
27715;BMP280;16051;53.024;8.630;2022-12-18T03:02:04;102929.84;;;-8.08
27715;BMP280;16051;53.024;8.630;2022-12-18T03:06:14;102922.03;;;-8.23
27715;BMP280;16051;53.024;8.630;2022-12-18T03:10:26;102921.34;;;-8.29
27715;BMP280;16051;53.024;8.630;2022-12-18T03:14:32;102915.63;;;-8.27
27715;BMP280;16051;53.024;8.630;2022-12-18T03:18:42;102923.69;;;-8.27
27715;BMP280;16051;53.024;8.630;2022-12-18T03:22:51;102917.72;;;-8.24
27715;BMP280;16051;53.024;8.630;2022-12-18T03:27:01;102913.38;;;-8.34
27715;BMP280;16051;53.024;8.630;2022-12-18T03:31:09;102917.34;;;-8.31
27715;BMP280;16051;53.024;8.630;2022-12-18T03:35:18;102915.81;;;-8.37
27715;BMP280;16051;53.024;8.630;2022-12-18T03:39:25;102913.47;;;-8.25
27715;BMP280;16051;53.024;8.630;2022-12-18T03:43:38;102912.31;;;-8.19
27715;BMP280;16051;53.024;8.630;2022-12-18T03:47:58;102925.13;;;-8.16
27715;BMP280;16051;53.024;8.630;2022-12-18T03:52:06;102919.97;;;-8.13
27715;BMP280;16051;53.024;8.630;2022-12-18T03:56:13;102921.97;;;-8.18
27715;BMP280;16051;53.024;8.630;2022-12-18T04:00:19;102918.03;;;-8.26
27715;BMP280;16051;53.024;8.630;2022-12-18T04:04:23;102927.69;;;-8.25
27715;BMP280;16051;53.024;8.630;2022-12-18T04:08:27;102924.06;;;-8.15
27715;BMP280;16051;53.024;8.630;2022-12-18T04:12:30;102909.56;;;-8.14
27715;BMP280;16051;53.024;8.630;2022-12-18T04:16:47;102894.97;;;-8.08
27715;BMP280;16051;53.024;8.630;2022-12-18T04:20:49;102900.28;;;-8.22
27715;BMP280;16051;53.024;8.630;2022-12-18T04:24:53;102895.78;;;-8.26
27715;BMP280;16051;53.024;8.630;2022-12-18T04:28:55;102899.91;;;-8.15
27715;BMP280;16051;53.024;8.630;2022-12-18T04:32:57;102903.09;;;-8.13
27715;BMP280;16051;53.024;8.630;2022-12-18T04:37:18;102906.28;;;-8.11
27715;BMP280;16051;53.024;8.630;2022-12-18T04:41:22;102913.16;;;-8.05
27715;BMP280;16051;53.024;8.630;2022-12-18T04:45:24;102901.19;;;-8.13
27715;BMP280;16051;53.024;8.630;2022-12-18T04:49:26;102915.88;;;-7.91
27715;BMP280;16051;53.024;8.630;2022-12-18T04:53:28;102912.31;;;-7.87
27715;BMP280;16051;53.024;8.630;2022-12-18T04:57:42;102928.88;;;-7.99
27715;BMP280;16051;53.024;8.630;2022-12-18T05:01:44;102921.34;;;-7.97
27715;BMP280;16051;53.024;8.630;2022-12-18T05:05:49;102931.44;;;-8.07
27715;BMP280;16051;53.024;8.630;2022-12-18T05:09:51;102924.63;;;-8.18
27715;BMP280;16051;53.024;8.630;2022-12-18T05:13:55;102933.50;;;-8.18
27715;BMP280;16051;53.024;8.630;2022-12-18T05:17:57;102933.41;;;-8.13
27715;BMP280;16051;53.024;8.630;2022-12-18T05:22:00;102940.16;;;-8.15
27715;BMP280;16051;53.024;8.630;2022-12-18T05:26:05;102946.38;;;-8.20
27715;BMP280;16051;53.024;8.630;2022-12-18T05:30:11;102948.34;;;-8.25
27715;BMP280;16051;53.024;8.630;2022-12-18T05:34:14;102958.91;;;-8.29
27715;BMP280;16051;53.024;8.630;2022-12-18T05:38:16;102953.19;;;-8.27
27715;BMP280;16051;53.024;8.630;2022-12-18T05:42:18;102964.91;;;-8.37
27715;BMP280;16051;53.024;8.630;2022-12-18T05:46:21;102953.59;;;-8.34
27715;BMP280;16051;53.024;8.630;2022-12-18T05:50:24;102958.94;;;-8.34
27715;BMP280;16051;53.024;8.630;2022-12-18T05:54:27;102947.28;;;-8.43
27715;BMP280;16051;53.024;8.630;2022-12-18T05:58:30;102951.50;;;-8.37
27715;BMP280;16051;53.024;8.630;2022-12-18T06:02:34;102958.72;;;-8.37
27715;BMP280;16051;53.024;8.630;2022-12-18T06:06:36;102960.03;;;-8.35
27715;BMP280;16051;53.024;8.630;2022-12-18T06:10:38;102960.25;;;-8.31
27715;BMP280;16051;53.024;8.630;2022-12-18T06:14:41;102967.94;;;-8.25
27715;BMP280;16051;53.024;8.630;2022-12-18T06:18:56;102952.09;;;-8.26
27715;BMP280;16051;53.024;8.630;2022-12-18T06:22:58;102952.09;;;-8.26
27715;BMP280;16051;53.024;8.630;2022-12-18T06:27:10;102948.16;;;-8.29
27715;BMP280;16051;53.024;8.630;2022-12-18T06:31:12;102944.53;;;-8.38
27715;BMP280;16051;53.024;8.630;2022-12-18T06:35:16;102966.53;;;-8.22
27715;BMP280;16051;53.024;8.630;2022-12-18T06:39:18;102958.16;;;-8.34
27715;BMP280;16051;53.024;8.630;2022-12-18T06:43:20;102960.34;;;-8.36
27715;BMP280;16051;53.024;8.630;2022-12-18T06:47:40;102959.59;;;-8.42
27715;BMP280;16051;53.024;8.630;2022-12-18T06:51:43;102983.94;;;-8.38
27715;BMP280;16051;53.024;8.630;2022-12-18T06:55:45;102963.94;;;-8.46
27715;BMP280;16051;53.024;8.630;2022-12-18T06:59:47;102975.31;;;-8.35
27715;BMP280;16051;53.024;8.630;2022-12-18T07:03:53;102982.59;;;-8.36
27715;BMP280;16051;53.024;8.630;2022-12-18T07:08:14;102990.63;;;-8.36
27715;BMP280;16051;53.024;8.630;2022-12-18T07:12:16;102996.09;;;-8.46
27715;BMP280;16051;53.024;8.630;2022-12-18T07:16:20;102993.72;;;-8.48
27715;BMP280;16051;53.024;8.630;2022-12-18T07:20:22;103003.22;;;-8.55
27715;BMP280;16051;53.024;8.630;2022-12-18T07:24:25;102997.84;;;-8.55
27715;BMP280;16051;53.024;8.630;2022-12-18T07:28:42;103000.00;;;-8.57
27715;BMP280;16051;53.024;8.630;2022-12-18T07:32:45;102999.84;;;-8.66
27715;BMP280;16051;53.024;8.630;2022-12-18T07:36:47;102985.28;;;-8.60
27715;BMP280;16051;53.024;8.630;2022-12-18T07:40:50;102994.09;;;-8.54
27715;BMP280;16051;53.024;8.630;2022-12-18T07:44:52;102997.66;;;-8.40
27715;BMP280;16051;53.024;8.630;2022-12-18T07:48:54;102981.00;;;-8.37
27715;BMP280;16051;53.024;8.630;2022-12-18T07:52:57;102980.19;;;-8.37
27715;BMP280;16051;53.024;8.630;2022-12-18T07:57:00;102977.13;;;-8.50
27715;BMP280;16051;53.024;8.630;2022-12-18T08:01:04;102981.63;;;-8.45
27715;BMP280;16051;53.024;8.630;2022-12-18T08:05:13;102979.97;;;-8.41
27715;BMP280;16051;53.024;8.630;2022-12-18T08:09:16;102966.59;;;-8.27
27715;BMP280;16051;53.024;8.630;2022-12-18T08:13:19;102961.66;;;-8.20
27715;BMP280;16051;53.024;8.630;2022-12-18T08:17:21;102979.38;;;-8.19
27715;BMP280;16051;53.024;8.630;2022-12-18T08:21:28;102978.50;;;-8.15
27715;BMP280;16051;53.024;8.630;2022-12-18T08:25:31;102968.28;;;-8.13
27715;BMP280;16051;53.024;8.630;2022-12-18T08:29:35;102972.41;;;-8.02
27715;BMP280;16051;53.024;8.630;2022-12-18T08:33:54;102966.59;;;-7.90
27715;BMP280;16051;53.024;8.630;2022-12-18T08:37:56;102958.78;;;-7.73
27715;BMP280;16051;53.024;8.630;2022-12-18T08:41:58;102952.84;;;-7.70
27715;BMP280;16051;53.024;8.630;2022-12-18T08:46:36;102953.19;;;-7.58
27715;BMP280;16051;53.024;8.630;2022-12-18T08:50:38;102959.50;;;-7.35
27715;BMP280;16051;53.024;8.630;2022-12-18T08:54:40;102953.75;;;-7.01
27715;BMP280;16051;53.024;8.630;2022-12-18T08:58:43;102945.16;;;-6.76
27715;BMP280;16051;53.024;8.630;2022-12-18T09:02:46;102947.25;;;-6.59
27715;BMP280;16051;53.024;8.630;2022-12-18T09:06:50;102943.13;;;-6.43
27715;BMP280;16051;53.024;8.630;2022-12-18T09:10:52;102940.63;;;-6.39
27715;BMP280;16051;53.024;8.630;2022-12-18T09:14:59;102959.44;;;-6.26
27715;BMP280;16051;53.024;8.630;2022-12-18T09:19:06;102968.28;;;-6.25
27715;BMP280;16051;53.024;8.630;2022-12-18T09:23:08;102986.56;;;-6.00
27715;BMP280;16051;53.024;8.630;2022-12-18T09:27:13;102986.38;;;-5.81
27715;BMP280;16051;53.024;8.630;2022-12-18T09:31:24;102975.66;;;-5.73
27715;BMP280;16051;53.024;8.630;2022-12-18T09:35:47;102981.09;;;-5.64
27715;BMP280;16051;53.024;8.630;2022-12-18T09:39:49;102989.88;;;-5.59
27715;BMP280;16051;53.024;8.630;2022-12-18T09:44:15;102985.31;;;-5.50
27715;BMP280;16051;53.024;8.630;2022-12-18T09:48:25;102986.97;;;-5.40
27715;BMP280;16051;53.024;8.630;2022-12-18T09:52:36;102981.94;;;-5.33
27715;BMP280;16051;53.024;8.630;2022-12-18T09:56:42;102992.75;;;-5.24
27715;BMP280;16051;53.024;8.630;2022-12-18T10:00:45;102988.78;;;-5.27
27715;BMP280;16051;53.024;8.630;2022-12-18T10:05:03;102999.00;;;-5.15
27715;BMP280;16051;53.024;8.630;2022-12-18T10:09:16;102983.34;;;-5.05
27715;BMP280;16051;53.024;8.630;2022-12-18T10:13:28;102981.16;;;-4.94
27715;BMP280;16051;53.024;8.630;2022-12-18T10:17:45;102980.72;;;-4.87
27715;BMP280;16051;53.024;8.630;2022-12-18T10:22:11;102972.00;;;-4.84
27715;BMP280;16051;53.024;8.630;2022-12-18T10:26:17;102966.97;;;-4.69
27715;BMP280;16051;53.024;8.630;2022-12-18T10:30:22;102954.75;;;-4.66
27715;BMP280;16051;53.024;8.630;2022-12-18T10:34:35;102950.81;;;-4.52
27715;BMP280;16051;53.024;8.630;2022-12-18T10:38:37;102946.53;;;-4.44
27715;BMP280;16051;53.024;8.630;2022-12-18T10:42:41;102951.47;;;-4.37
27715;BMP280;16051;53.024;8.630;2022-12-18T10:46:45;102946.22;;;-4.34
27715;BMP280;16051;53.024;8.630;2022-12-18T10:50:57;102935.44;;;-4.25
27715;BMP280;16051;53.024;8.630;2022-12-18T10:55:17;102934.97;;;-4.19
27715;BMP280;16051;53.024;8.630;2022-12-18T10:59:51;102921.78;;;-4.12
27715;BMP280;16051;53.024;8.630;2022-12-18T11:04:07;102915.75;;;-4.09
27715;BMP280;16051;53.024;8.630;2022-12-18T11:08:21;102899.84;;;-3.93
27715;BMP280;16051;53.024;8.630;2022-12-18T11:12:35;102899.09;;;-4.11
27715;BMP280;16051;53.024;8.630;2022-12-18T11:16:46;102899.69;;;-3.88
27715;BMP280;16051;53.024;8.630;2022-12-18T11:21:00;102897.59;;;-3.82
27715;BMP280;16051;53.024;8.630;2022-12-18T11:25:19;102880.91;;;-3.76
27715;BMP280;16051;53.024;8.630;2022-12-18T11:29:37;102885.34;;;-3.63
27715;BMP280;16051;53.024;8.630;2022-12-18T11:33:46;102888.03;;;-3.63
27715;BMP280;16051;53.024;8.630;2022-12-18T11:37:57;102868.63;;;-3.56
27715;BMP280;16051;53.024;8.630;2022-12-18T11:42:10;102853.16;;;-3.47
27715;BMP280;16051;53.024;8.630;2022-12-18T11:46:19;102847.44;;;-3.45
27715;BMP280;16051;53.024;8.630;2022-12-18T11:50:50;102838.94;;;-3.35
27715;BMP280;16051;53.024;8.630;2022-12-18T11:54:55;102840.50;;;-3.26
27715;BMP280;16051;53.024;8.630;2022-12-18T11:59:08;102841.56;;;-3.18
27715;BMP280;16051;53.024;8.630;2022-12-18T12:03:35;102835.13;;;-3.05
27715;BMP280;16051;53.024;8.630;2022-12-18T12:07:58;102818.25;;;-3.02
27715;BMP280;16051;53.024;8.630;2022-12-18T12:12:26;102835.59;;;-3.03
27715;BMP280;16051;53.024;8.630;2022-12-18T12:16:58;102806.78;;;-2.99
27715;BMP280;16051;53.024;8.630;2022-12-18T12:21:26;102827.03;;;-2.84
27715;BMP280;16051;53.024;8.630;2022-12-18T12:25:41;102813.63;;;-2.81
27715;BMP280;16051;53.024;8.630;2022-12-18T12:30:05;102799.59;;;-2.74
27715;BMP280;16051;53.024;8.630;2022-12-18T12:34:18;102798.16;;;-2.72
27715;BMP280;16051;53.024;8.630;2022-12-18T12:38:34;102792.06;;;-2.69
27715;BMP280;16051;53.024;8.630;2022-12-18T12:42:45;102781.03;;;-2.64
27715;BMP280;16051;53.024;8.630;2022-12-18T12:47:15;102773.16;;;-2.57
27715;BMP280;16051;53.024;8.630;2022-12-18T12:51:21;102775.69;;;-2.52
27715;BMP280;16051;53.024;8.630;2022-12-18T12:55:28;102772.41;;;-2.57
27715;BMP280;16051;53.024;8.630;2022-12-18T12:59:44;102772.53;;;-2.54
27715;BMP280;16051;53.024;8.630;2022-12-18T13:04:32;102769.81;;;-2.54
27715;BMP280;16051;53.024;8.630;2022-12-18T13:08:57;102753.78;;;-2.59
27715;BMP280;16051;53.024;8.630;2022-12-18T13:13:04;102756.03;;;-2.61
27715;BMP280;16051;53.024;8.630;2022-12-18T13:17:31;102740.13;;;-2.62
27715;BMP280;16051;53.024;8.630;2022-12-18T13:21:54;102740.69;;;-2.57
27715;BMP280;16051;53.024;8.630;2022-12-18T13:26:30;102737.78;;;-2.52
27715;BMP280;16051;53.024;8.630;2022-12-18T13:30:52;102732.16;;;-2.46
27715;BMP280;16051;53.024;8.630;2022-12-18T13:39:56;102723.56;;;-2.49
27715;BMP280;16051;53.024;8.630;2022-12-18T13:44:12;102710.28;;;-2.54
27715;BMP280;16051;53.024;8.630;2022-12-18T13:48:23;102694.91;;;-2.50
27715;BMP280;16051;53.024;8.630;2022-12-18T13:52:36;102691.81;;;-2.39
27715;BMP280;16051;53.024;8.630;2022-12-18T13:56:46;102682.66;;;-2.47
27715;BMP280;16051;53.024;8.630;2022-12-18T14:00:58;102690.09;;;-2.44
27715;BMP280;16051;53.024;8.630;2022-12-18T14:05:30;102687.06;;;-2.42
27715;BMP280;16051;53.024;8.630;2022-12-18T14:09:37;102690.66;;;-2.38
27715;BMP280;16051;53.024;8.630;2022-12-18T14:13:52;102684.69;;;-2.44
27715;BMP280;16051;53.024;8.630;2022-12-18T14:17:57;102678.94;;;-2.42
27715;BMP280;16051;53.024;8.630;2022-12-18T14:22:00;102672.63;;;-2.46
27715;BMP280;16051;53.024;8.630;2022-12-18T14:26:20;102669.00;;;-2.51
27715;BMP280;16051;53.024;8.630;2022-12-18T14:30:37;102672.28;;;-2.33
27715;BMP280;16051;53.024;8.630;2022-12-18T14:34:39;102667.44;;;-2.39
27715;BMP280;16051;53.024;8.630;2022-12-18T14:38:49;102656.59;;;-2.39
27715;BMP280;16051;53.024;8.630;2022-12-18T14:42:52;102648.94;;;-2.37
27715;BMP280;16051;53.024;8.630;2022-12-18T14:46:56;102647.81;;;-2.36
27715;BMP280;16051;53.024;8.630;2022-12-18T14:51:01;102636.06;;;-2.40
27715;BMP280;16051;53.024;8.630;2022-12-18T14:55:05;102637.44;;;-2.46
27715;BMP280;16051;53.024;8.630;2022-12-18T14:59:16;102638.09;;;-2.37
27715;BMP280;16051;53.024;8.630;2022-12-18T15:03:26;102632.44;;;-2.44
27715;BMP280;16051;53.024;8.630;2022-12-18T15:07:41;102625.69;;;-2.51
27715;BMP280;16051;53.024;8.630;2022-12-18T15:11:58;102622.38;;;-2.56
27715;BMP280;16051;53.024;8.630;2022-12-18T15:16:03;102610.56;;;-2.52
27715;BMP280;16051;53.024;8.630;2022-12-18T15:20:17;102602.00;;;-2.41
27715;BMP280;16051;53.024;8.630;2022-12-18T15:24:27;102594.22;;;-2.55
27715;BMP280;16051;53.024;8.630;2022-12-18T15:28:35;102585.66;;;-2.57
27715;BMP280;16051;53.024;8.630;2022-12-18T15:32:43;102580.34;;;-2.54
27715;BMP280;16051;53.024;8.630;2022-12-18T15:37:02;102578.75;;;-2.55
27715;BMP280;16051;53.024;8.630;2022-12-18T15:41:13;102577.88;;;-2.46
27715;BMP280;16051;53.024;8.630;2022-12-18T15:45:16;102566.94;;;-2.50
27715;BMP280;16051;53.024;8.630;2022-12-18T15:49:18;102570.06;;;-2.48
27715;BMP280;16051;53.024;8.630;2022-12-18T15:53:23;102575.06;;;-2.50
27715;BMP280;16051;53.024;8.630;2022-12-18T15:57:26;102572.66;;;-2.52
27715;BMP280;16051;53.024;8.630;2022-12-18T16:01:31;102563.66;;;-2.43
27715;BMP280;16051;53.024;8.630;2022-12-18T16:05:33;102571.78;;;-2.43
27715;BMP280;16051;53.024;8.630;2022-12-18T16:09:41;102558.47;;;-2.36
27715;BMP280;16051;53.024;8.630;2022-12-18T16:13:49;102548.75;;;-2.50
27715;BMP280;16051;53.024;8.630;2022-12-18T16:17:59;102535.91;;;-2.40
27715;BMP280;16051;53.024;8.630;2022-12-18T16:22:19;102525.28;;;-2.45
27715;BMP280;16051;53.024;8.630;2022-12-18T16:26:25;102507.94;;;-2.44
27715;BMP280;16051;53.024;8.630;2022-12-18T16:30:30;102502.88;;;-2.46
27715;BMP280;16051;53.024;8.630;2022-12-18T16:34:42;102499.38;;;-2.46
27715;BMP280;16051;53.024;8.630;2022-12-18T16:38:46;102495.31;;;-2.40
27715;BMP280;16051;53.024;8.630;2022-12-18T16:42:58;102476.13;;;-2.47
27715;BMP280;16051;53.024;8.630;2022-12-18T16:47:03;102479.84;;;-2.40
27715;BMP280;16051;53.024;8.630;2022-12-18T16:51:05;102485.13;;;-2.31
27715;BMP280;16051;53.024;8.630;2022-12-18T16:55:08;102478.03;;;-2.36
27715;BMP280;16051;53.024;8.630;2022-12-18T16:59:12;102470.94;;;-2.40
27715;BMP280;16051;53.024;8.630;2022-12-18T17:03:22;102470.72;;;-2.35
27715;BMP280;16051;53.024;8.630;2022-12-18T17:07:25;102471.81;;;-2.24
27715;BMP280;16051;53.024;8.630;2022-12-18T17:11:37;102455.91;;;-2.26
27715;BMP280;16051;53.024;8.630;2022-12-18T17:15:55;102455.34;;;-2.31
27715;BMP280;16051;53.024;8.630;2022-12-18T17:20:16;102454.00;;;-2.25
27715;BMP280;16051;53.024;8.630;2022-12-18T17:24:19;102448.81;;;-2.30
27715;BMP280;16051;53.024;8.630;2022-12-18T17:28:21;102446.19;;;-2.27
27715;BMP280;16051;53.024;8.630;2022-12-18T17:32:27;102445.88;;;-2.25
27715;BMP280;16051;53.024;8.630;2022-12-18T17:36:40;102434.16;;;-2.29
27715;BMP280;16051;53.024;8.630;2022-12-18T17:40:42;102420.91;;;-2.19
27715;BMP280;16051;53.024;8.630;2022-12-18T17:44:52;102407.97;;;-2.25
27715;BMP280;16051;53.024;8.630;2022-12-18T17:48:57;102392.84;;;-2.26
27715;BMP280;16051;53.024;8.630;2022-12-18T17:53:02;102375.72;;;-2.30
27715;BMP280;16051;53.024;8.630;2022-12-18T17:57:04;102372.66;;;-2.29
27715;BMP280;16051;53.024;8.630;2022-12-18T18:01:10;102372.31;;;-2.27
27715;BMP280;16051;53.024;8.630;2022-12-18T18:05:29;102377.06;;;-2.24
27715;BMP280;16051;53.024;8.630;2022-12-18T18:09:32;102364.97;;;-2.27
27715;BMP280;16051;53.024;8.630;2022-12-18T18:13:35;102355.59;;;-2.17
27715;BMP280;16051;53.024;8.630;2022-12-18T18:18:00;102352.09;;;-2.18
27715;BMP280;16051;53.024;8.630;2022-12-18T18:22:09;102349.38;;;-2.18
27715;BMP280;16051;53.024;8.630;2022-12-18T18:26:13;102353.22;;;-2.19
27715;BMP280;16051;53.024;8.630;2022-12-18T18:30:16;102346.78;;;-2.14
27715;BMP280;16051;53.024;8.630;2022-12-18T18:34:27;102315.59;;;-2.08
27715;BMP280;16051;53.024;8.630;2022-12-18T18:38:31;102324.94;;;-2.06
27715;BMP280;16051;53.024;8.630;2022-12-18T18:42:33;102304.75;;;-2.08
27715;BMP280;16051;53.024;8.630;2022-12-18T18:46:35;102299.06;;;-2.19
27715;BMP280;16051;53.024;8.630;2022-12-18T18:50:37;102294.16;;;-2.13
27715;BMP280;16051;53.024;8.630;2022-12-18T18:54:41;102301.88;;;-2.15
27715;BMP280;16051;53.024;8.630;2022-12-18T18:58:44;102308.41;;;-2.16
27715;BMP280;16051;53.024;8.630;2022-12-18T19:03:03;102298.38;;;-2.16
27715;BMP280;16051;53.024;8.630;2022-12-18T19:07:07;102317.00;;;-1.99
27715;BMP280;16051;53.024;8.630;2022-12-18T19:11:24;102306.53;;;-2.00
27715;BMP280;16051;53.024;8.630;2022-12-18T19:15:53;102302.00;;;-1.96
27715;BMP280;16051;53.024;8.630;2022-12-18T19:20:16;102293.97;;;-1.92
27715;BMP280;16051;53.024;8.630;2022-12-18T19:24:18;102308.97;;;-1.95
27715;BMP280;16051;53.024;8.630;2022-12-18T19:28:23;102305.75;;;-1.85
27715;BMP280;16051;53.024;8.630;2022-12-18T19:32:28;102319.56;;;-1.90
27715;BMP280;16051;53.024;8.630;2022-12-18T19:36:33;102320.25;;;-1.93
27715;BMP280;16051;53.024;8.630;2022-12-18T19:40:39;102327.59;;;-1.93
27715;BMP280;16051;53.024;8.630;2022-12-18T19:44:45;102303.53;;;-1.95
27715;BMP280;16051;53.024;8.630;2022-12-18T19:48:48;102311.09;;;-1.88
27715;BMP280;16051;53.024;8.630;2022-12-18T19:52:58;102307.50;;;-1.92
27715;BMP280;16051;53.024;8.630;2022-12-18T19:57:00;102298.91;;;-1.94
27715;BMP280;16051;53.024;8.630;2022-12-18T20:01:05;102292.72;;;-1.95
27715;BMP280;16051;53.024;8.630;2022-12-18T20:05:14;102310.38;;;-1.85
27715;BMP280;16051;53.024;8.630;2022-12-18T20:09:17;102281.72;;;-1.86
27715;BMP280;16051;53.024;8.630;2022-12-18T20:13:20;102275.94;;;-1.69
27715;BMP280;16051;53.024;8.630;2022-12-18T20:17:23;102292.47;;;-1.74
27715;BMP280;16051;53.024;8.630;2022-12-18T20:21:55;102288.97;;;-1.75
27715;BMP280;16051;53.024;8.630;2022-12-18T20:26:00;102301.66;;;-1.79
27715;BMP280;16051;53.024;8.630;2022-12-18T20:30:03;102309.88;;;-1.75
27715;BMP280;16051;53.024;8.630;2022-12-18T20:34:07;102299.81;;;-1.75
27715;BMP280;16051;53.024;8.630;2022-12-18T20:38:09;102297.28;;;-1.68
27715;BMP280;16051;53.024;8.630;2022-12-18T20:42:11;102274.19;;;-1.62
27715;BMP280;16051;53.024;8.630;2022-12-18T20:46:26;102288.13;;;-1.63
27715;BMP280;16051;53.024;8.630;2022-12-18T20:50:36;102289.25;;;-1.64
27715;BMP280;16051;53.024;8.630;2022-12-18T20:54:50;102282.16;;;-1.53
27715;BMP280;16051;53.024;8.630;2022-12-18T20:58:58;102273.94;;;-1.57
27715;BMP280;16051;53.024;8.630;2022-12-18T21:03:00;102273.94;;;-1.57
27715;BMP280;16051;53.024;8.630;2022-12-18T21:07:29;102263.25;;;-1.50
27715;BMP280;16051;53.024;8.630;2022-12-18T21:11:39;102259.75;;;-1.34
27715;BMP280;16051;53.024;8.630;2022-12-18T21:15:59;102264.38;;;-1.35
27715;BMP280;16051;53.024;8.630;2022-12-18T21:20:01;102252.91;;;-1.28
27715;BMP280;16051;53.024;8.630;2022-12-18T21:24:06;102244.50;;;-1.23
27715;BMP280;16051;53.024;8.630;2022-12-18T21:28:10;102244.94;;;-1.21
27715;BMP280;16051;53.024;8.630;2022-12-18T21:32:13;102238.06;;;-1.15
27715;BMP280;16051;53.024;8.630;2022-12-18T21:36:15;102229.31;;;-1.09
27715;BMP280;16051;53.024;8.630;2022-12-18T21:40:18;102223.44;;;-1.11
27715;BMP280;16051;53.024;8.630;2022-12-18T21:44:21;102219.94;;;-1.11
27715;BMP280;16051;53.024;8.630;2022-12-18T21:48:30;102230.09;;;-1.08
27715;BMP280;16051;53.024;8.630;2022-12-18T21:52:33;102224.31;;;-1.07
27715;BMP280;16051;53.024;8.630;2022-12-18T21:56:48;102218.56;;;-1.05
27715;BMP280;16051;53.024;8.630;2022-12-18T22:01:01;102212.41;;;-1.02
27715;BMP280;16051;53.024;8.630;2022-12-18T22:05:04;102214.09;;;-0.94
27715;BMP280;16051;53.024;8.630;2022-12-18T22:09:06;102214.53;;;-0.92
27715;BMP280;16051;53.024;8.630;2022-12-18T22:13:10;102221.91;;;-0.92
27715;BMP280;16051;53.024;8.630;2022-12-18T22:17:16;102204.97;;;-0.86
27715;BMP280;16051;53.024;8.630;2022-12-18T22:21:24;102217.41;;;-0.85
27715;BMP280;16051;53.024;8.630;2022-12-18T22:25:26;102205.13;;;-0.79
27715;BMP280;16051;53.024;8.630;2022-12-18T22:30:04;102192.63;;;-0.83
27715;BMP280;16051;53.024;8.630;2022-12-18T22:34:08;102193.47;;;-0.79
27715;BMP280;16051;53.024;8.630;2022-12-18T22:38:10;102188.56;;;-0.74
27715;BMP280;16051;53.024;8.630;2022-12-18T22:42:13;102176.19;;;-0.71
27715;BMP280;16051;53.024;8.630;2022-12-18T22:46:17;102184.75;;;-0.69
27715;BMP280;16051;53.024;8.630;2022-12-18T22:50:20;102179.41;;;-0.66
27715;BMP280;16051;53.024;8.630;2022-12-18T22:54:22;102174.09;;;-0.59
27715;BMP280;16051;53.024;8.630;2022-12-18T22:58:42;102169.41;;;-0.62
27715;BMP280;16051;53.024;8.630;2022-12-18T23:02:45;102167.44;;;-0.61
27715;BMP280;16051;53.024;8.630;2022-12-18T23:06:47;102164.84;;;-0.54
27715;BMP280;16051;53.024;8.630;2022-12-18T23:10:51;102167.41;;;-0.42
27715;BMP280;16051;53.024;8.630;2022-12-18T23:14:54;102148.00;;;-0.44
27715;BMP280;16051;53.024;8.630;2022-12-18T23:18:57;102133.97;;;-0.46
27715;BMP280;16051;53.024;8.630;2022-12-18T23:22:59;102131.75;;;-0.40
27715;BMP280;16051;53.024;8.630;2022-12-18T23:27:01;102115.34;;;-0.47
27715;BMP280;16051;53.024;8.630;2022-12-18T23:31:05;102133.69;;;-0.41
27715;BMP280;16051;53.024;8.630;2022-12-18T23:35:10;102125.59;;;-0.37
27715;BMP280;16051;53.024;8.630;2022-12-18T23:39:13;102112.44;;;-0.35